Time,TemperatureF,DewpointF,PressureIn,WindDirection,WindDirectionDegrees,WindSpeedMPH,WindSpeedGustMPH,Humidity,HourlyPrecipIn,Conditions,Clouds,dailyrainin,SoftwareType,DateUTC
2013-03-02 00:00:00,25.4,24.7,29.76,NNW,333,4.0,4.0,97,0.00,,,0.00,Wunderground v.1.15,2013-03-02 05:00:00,
2013-03-02 00:02:00,25.4,24.7,29.76,NW,321,4.0,7.0,97,0.00,,,0.00,Wunderground v.1.15,2013-03-02 05:02:00,
2013-03-02 00:04:00,25.4,24.7,29.76,NW,310,4.0,7.0,97,0.00,,,0.00,Wunderground v.1.15,2013-03-02 05:04:00,
2013-03-02 00:10:00,25.4,24.7,29.76,NW,319,4.0,4.0,97,0.00,,,0.00,Wunderground v.1.15,2013-03-02 05:10:00,
2013-03-02 00:16:00,25.4,24.4,29.77,NW,319,3.0,7.0,96,0.00,,,0.00,Wunderground v.1.15,2013-03-02 05:16:00,
2013-03-02 00:22:00,25.4,24.4,29.77,NNW,336,3.0,7.0,96,0.00,,,0.00,Wunderground v.1.15,2013-03-02 05:22:00,
2013-03-02 00:24:00,25.4,24.4,29.77,NW,317,3.0,7.0,96,0.00,,,0.00,Wunderground v.1.15,2013-03-02 05:24:00,
2013-03-02 00:30:00,25.4,24.4,29.76,NW,316,4.0,7.0,96,0.00,,,0.00,Wunderground v.1.15,2013-03-02 05:30:00,
2013-03-02 00:36:00,25.4,24.4,29.77,NNW,336,3.0,7.0,96,0.00,,,0.00,Wunderground v.1.15,2013-03-02 05:36:00,
2013-03-02 00:42:00,25.5,24.8,29.77,North,350,3.0,7.0,97,0.00,,,0.00,Wunderground v.1.15,2013-03-02 05:42:00,
2013-03-02 00:48:00,25.5,24.8,29.77,NW,313,3.0,7.0,97,0.00,,,0.00,Wunderground v.1.15,2013-03-02 05:48:00,
2013-03-02 00:54:00,25.5,24.8,29.77,NNW,346,2.0,7.0,97,0.00,,,0.00,Wunderground v.1.15,2013-03-02 05:54:00,
2013-03-02 01:00:00,25.5,24.8,29.77,NNW,345,3.0,3.0,97,0.00,,,0.00,Wunderground v.1.15,2013-03-02 06:00:00,
2013-03-02 01:06:00,25.5,24.8,29.77,NNW,346,3.0,6.0,97,0.00,,,0.00,Wunderground v.1.15,2013-03-02 06:06:00,
2013-03-02 01:12:00,25.5,24.8,29.77,NNW,343,3.0,6.0,97,0.00,,,0.00,Wunderground v.1.15,2013-03-02 06:12:00,
2013-03-02 01:18:00,25.6,24.9,29.77,North,355,3.0,6.0,97,0.00,,,0.00,Wunderground v.1.15,2013-03-02 06:18:00,
2013-03-02 01:24:00,25.5,24.8,29.77,NNW,335,3.0,6.0,97,0.00,,,0.00,Wunderground v.1.15,2013-03-02 06:24:00,
2013-03-02 01:30:00,25.6,25.1,29.77,North,360,3.0,6.0,98,0.00,,,0.00,Wunderground v.1.15,2013-03-02 06:30:00,
2013-03-02 01:36:00,25.6,25.1,29.77,NNW,334,3.0,6.0,98,0.00,,,0.00,Wunderground v.1.15,2013-03-02 06:36:00,
2013-03-02 01:42:00,25.5,25.0,29.77,NNW,329,3.0,6.0,98,0.00,,,0.00,Wunderground v.1.15,2013-03-02 06:42:00,
2013-03-02 01:48:00,25.6,25.1,29.77,North,351,4.0,6.0,98,0.00,,,0.00,Wunderground v.1.15,2013-03-02 06:48:00,
2013-03-02 01:54:00,25.5,25.0,29.77,North,355,4.0,6.0,98,0.00,,,0.00,Wunderground v.1.15,2013-03-02 06:54:00,
2013-03-02 02:00:00,25.5,25.0,29.77,North,355,4.0,7.0,98,0.00,,,0.00,Wunderground v.1.15,2013-03-02 07:00:00,
2013-03-02 02:06:00,25.4,24.9,29.77,NNW,336,5.0,7.0,98,0.00,,,0.00,Wunderground v.1.15,2013-03-02 07:06:00,
2013-03-02 02:11:00,25.4,25.0,29.77,NNW,347,6.0,7.0,98,0.00,,,0.00,weatherlink.com 1.10,2013-03-02 07:11:00,
2013-03-02 02:18:00,25.4,24.9,29.77,NNW,346,5.0,7.0,98,0.00,,,0.00,Wunderground v.1.15,2013-03-02 07:18:00,
2013-03-02 02:24:00,25.4,24.9,29.76,North,355,4.0,7.0,98,0.00,,,0.00,Wunderground v.1.15,2013-03-02 07:24:00,
2013-03-02 02:30:00,25.3,24.8,29.76,North,9,3.0,7.0,98,0.00,,,0.00,Wunderground v.1.15,2013-03-02 07:30:00,
2013-03-02 02:36:00,25.3,24.8,29.76,NNW,348,3.0,7.0,98,0.00,,,0.00,Wunderground v.1.15,2013-03-02 07:36:00,
2013-03-02 02:41:00,25.3,25.0,29.76,NNW,340,4.0,6.0,98,0.00,,,0.00,weatherlink.com 1.10,2013-03-02 07:41:00,
2013-03-02 02:48:00,25.2,24.7,29.76,NNW,343,4.0,7.0,98,0.00,,,0.00,Wunderground v.1.15,2013-03-02 07:48:00,
2013-03-02 02:54:00,25.0,24.3,29.76,NNW,348,4.0,7.0,97,0.00,,,0.00,Wunderground v.1.15,2013-03-02 07:54:00,
2013-03-02 03:00:00,25.0,24.5,29.76,NNW,346,4.0,4.0,98,0.00,,,0.00,Wunderground v.1.15,2013-03-02 08:00:00,
2013-03-02 03:06:00,24.9,24.2,29.76,NNW,342,4.0,7.0,97,0.00,,,0.00,Wunderground v.1.15,2013-03-02 08:06:00,
2013-03-02 03:12:00,24.9,24.2,29.76,North,360,4.0,5.0,97,0.00,,,0.00,Wunderground v.1.15,2013-03-02 08:12:00,
2013-03-02 03:18:00,24.8,24.1,29.76,NNE,19,4.0,7.0,97,0.00,,,0.00,Wunderground v.1.15,2013-03-02 08:18:00,
2013-03-02 03:24:00,24.8,24.1,29.76,North,351,4.0,7.0,97,0.00,,,0.00,Wunderground v.1.15,2013-03-02 08:24:00,
2013-03-02 03:30:00,24.7,24.0,29.76,North,355,4.0,7.0,97,0.00,,,0.00,Wunderground v.1.15,2013-03-02 08:30:00,
2013-03-02 03:36:00,24.7,24.0,29.76,North,360,4.0,7.0,97,0.00,,,0.00,Wunderground v.1.15,2013-03-02 08:36:00,
2013-03-02 03:42:00,24.6,23.9,29.76,North,350,4.0,7.0,97,0.00,,,0.00,Wunderground v.1.15,2013-03-02 08:42:00,
2013-03-02 03:48:00,24.7,24.0,29.76,North,355,4.0,7.0,97,0.00,,,0.00,Wunderground v.1.15,2013-03-02 08:48:00,
2013-03-02 03:54:00,24.7,24.0,29.76,NNW,333,4.0,7.0,97,0.00,,,0.00,Wunderground v.1.15,2013-03-02 08:54:00,
2013-03-02 04:00:00,24.6,23.9,29.76,North,355,4.0,6.0,97,0.00,,,0.00,Wunderground v.1.15,2013-03-02 09:00:00,
2013-03-02 04:06:00,24.5,23.8,29.76,North,5,5.0,8.0,97,0.00,,,0.00,Wunderground v.1.15,2013-03-02 09:06:00,
2013-03-02 04:12:00,24.3,23.6,29.76,North,349,5.0,8.0,97,0.00,,,0.00,Wunderground v.1.15,2013-03-02 09:12:00,
2013-03-02 04:18:00,24.2,23.5,29.77,NNW,344,5.0,8.0,97,0.00,,,0.00,Wunderground v.1.15,2013-03-02 09:18:00,
2013-03-02 04:24:00,24.0,23.3,29.77,North,5,5.0,8.0,97,0.00,,,0.00,Wunderground v.1.15,2013-03-02 09:24:00,
2013-03-02 04:30:00,24.0,23.3,29.77,North,349,5.0,5.0,97,0.00,,,0.00,Wunderground v.1.15,2013-03-02 09:30:00,
2013-03-02 04:36:00,23.9,23.2,29.77,NNW,338,5.0,8.0,97,0.00,,,0.00,Wunderground v.1.15,2013-03-02 09:36:00,
2013-03-02 04:41:00,23.9,23.0,29.77,North,355,6.0,7.0,97,0.00,,,0.00,weatherlink.com 1.10,2013-03-02 09:41:00,
2013-03-02 04:48:00,23.9,23.2,29.77,NNW,344,5.0,8.0,97,0.00,,,0.00,Wunderground v.1.15,2013-03-02 09:48:00,
2013-03-02 04:54:00,23.8,23.1,29.77,NNW,338,5.0,8.0,97,0.00,,,0.00,Wunderground v.1.15,2013-03-02 09:54:00,
2013-03-02 05:00:00,23.8,23.1,29.77,North,360,5.0,5.0,97,0.00,,,0.00,Wunderground v.1.15,2013-03-02 10:00:00,
2013-03-02 05:06:00,23.8,23.1,29.77,North,355,5.0,8.0,97,0.00,,,0.00,Wunderground v.1.15,2013-03-02 10:06:00,
2013-03-02 05:12:00,23.7,23.0,29.78,North,355,7.0,7.0,97,0.00,,,0.00,weatherlink.com 1.10,2013-03-02 10:12:00,
2013-03-02 05:18:00,23.7,23.0,29.78,North,355,5.0,8.0,97,0.00,,,0.00,Wunderground v.1.15,2013-03-02 10:18:00,
2013-03-02 05:24:00,23.6,22.9,29.78,NNW,340,4.0,8.0,97,0.00,,,0.00,Wunderground v.1.15,2013-03-02 10:24:00,
2013-03-02 05:30:00,23.5,22.8,29.78,NNW,346,5.0,5.0,97,0.00,,,0.00,Wunderground v.1.15,2013-03-02 10:30:00,
2013-03-02 05:36:00,23.4,22.7,29.78,NNW,344,5.0,8.0,97,0.00,,,0.00,Wunderground v.1.15,2013-03-02 10:36:00,
2013-03-02 05:42:00,23.4,22.7,29.78,NNW,340,5.0,8.0,97,0.00,,,0.00,Wunderground v.1.15,2013-03-02 10:42:00,
2013-03-02 05:48:00,23.3,22.6,29.78,North,360,5.0,8.0,97,0.00,,,0.00,Wunderground v.1.15,2013-03-02 10:48:00,
2013-03-02 05:54:00,23.1,22.1,29.78,North,355,5.0,8.0,96,0.00,,,0.00,Wunderground v.1.15,2013-03-02 10:54:00,
2013-03-02 06:00:00,23.0,22.0,29.78,NNW,336,5.0,6.0,96,0.00,,,0.00,Wunderground v.1.15,2013-03-02 11:00:00,
2013-03-02 06:06:00,23.0,21.8,29.78,NNW,341,5.0,14.0,95,0.00,,,0.00,Wunderground v.1.15,2013-03-02 11:06:00,
2013-03-02 06:12:00,23.0,21.8,29.78,North,355,5.0,14.0,95,0.00,,,0.00,Wunderground v.1.15,2013-03-02 11:12:00,
2013-03-02 06:18:00,22.9,21.7,29.78,NW,325,5.0,14.0,95,0.00,,,0.00,Wunderground v.1.15,2013-03-02 11:18:00,
2013-03-02 06:24:00,22.8,21.6,29.78,NNW,338,5.0,14.0,95,0.00,,,0.00,Wunderground v.1.15,2013-03-02 11:24:00,
2013-03-02 06:30:00,22.8,21.3,29.78,NNW,348,6.0,6.0,94,0.00,,,0.00,Wunderground v.1.15,2013-03-02 11:30:00,
2013-03-02 06:36:00,22.7,21.2,29.79,North,355,5.0,14.0,94,0.00,,,0.00,Wunderground v.1.15,2013-03-02 11:36:00,
2013-03-02 06:42:00,22.6,21.4,29.79,NNW,337,6.0,6.0,95,0.00,,,0.00,Wunderground v.1.15,2013-03-02 11:42:00,
2013-03-02 06:48:00,22.5,21.0,29.79,NNW,344,6.0,14.0,94,0.00,,,0.00,Wunderground v.1.15,2013-03-02 11:48:00,
2013-03-02 06:54:00,22.5,21.3,29.79,NW,317,5.0,14.0,95,0.00,,,0.00,Wunderground v.1.15,2013-03-02 11:54:00,
2013-03-02 06:59:00,22.6,21.0,29.79,NNW,336,5.0,8.0,95,0.00,,,0.00,weatherlink.com 1.10,2013-03-02 11:59:00,
2013-03-02 07:04:00,22.4,21.2,29.79,North,355,4.0,10.0,95,0.00,,,0.00,Wunderground v.1.15,2013-03-02 12:04:00,
2013-03-02 07:10:00,22.4,21.2,29.79,NNW,339,5.0,10.0,95,0.00,,,0.00,Wunderground v.1.15,2013-03-02 12:10:00,
2013-03-02 07:16:00,22.4,21.2,29.79,NNE,14,5.0,10.0,95,0.00,,,0.00,Wunderground v.1.15,2013-03-02 12:16:00,
2013-03-02 07:22:00,22.4,21.2,29.79,NNW,329,5.0,7.0,95,0.00,,,0.00,Wunderground v.1.15,2013-03-02 12:22:00,
2013-03-02 07:28:00,22.3,21.1,29.79,NNW,346,5.0,10.0,95,0.00,,,0.00,Wunderground v.1.15,2013-03-02 12:28:00,
2013-03-02 07:34:00,22.3,21.1,29.79,North,355,5.0,10.0,95,0.00,,,0.00,Wunderground v.1.15,2013-03-02 12:34:00,
2013-03-02 07:40:00,22.4,21.2,29.80,NNW,348,5.0,10.0,95,0.00,,,0.00,Wunderground v.1.15,2013-03-02 12:40:00,
2013-03-02 07:46:00,22.3,21.1,29.80,North,350,5.0,10.0,95,0.00,,,0.00,Wunderground v.1.15,2013-03-02 12:46:00,
2013-03-02 07:52:00,22.3,21.1,29.80,NNW,343,5.0,10.0,95,0.00,,,0.00,Wunderground v.1.15,2013-03-02 12:52:00,
2013-03-02 07:58:00,22.2,21.0,29.80,North,350,5.0,10.0,95,0.00,,,0.00,Wunderground v.1.15,2013-03-02 12:58:00,
2013-03-02 08:04:00,22.1,20.9,29.80,NNW,341,6.0,11.0,95,0.00,,,0.00,Wunderground v.1.15,2013-03-02 13:04:00,
2013-03-02 08:10:00,22.1,20.9,29.80,North,351,5.0,11.0,95,0.00,,,0.00,Wunderground v.1.15,2013-03-02 13:10:00,
2013-03-02 08:16:00,22.2,21.0,29.80,North,9,5.0,11.0,95,0.00,,,0.00,Wunderground v.1.15,2013-03-02 13:16:00,
2013-03-02 08:22:00,22.2,21.0,29.80,North,355,5.0,11.0,95,0.00,,,0.00,Wunderground v.1.15,2013-03-02 13:22:00,
2013-03-02 08:28:00,22.1,20.9,29.80,NNW,338,5.0,11.0,95,0.00,,,0.00,Wunderground v.1.15,2013-03-02 13:28:00,
2013-03-02 08:34:00,22.2,21.0,29.80,NNW,347,5.0,11.0,95,0.00,,,0.00,Wunderground v.1.15,2013-03-02 13:34:00,
2013-03-02 08:40:00,22.2,21.0,29.80,North,355,5.0,5.0,95,0.00,,,0.00,Wunderground v.1.15,2013-03-02 13:40:00,
2013-03-02 08:46:00,22.1,20.9,29.80,NNW,340,4.0,11.0,95,0.00,,,0.00,Wunderground v.1.15,2013-03-02 13:46:00,
2013-03-02 08:52:00,22.2,21.0,29.80,North,5,4.0,11.0,95,0.00,,,0.00,Wunderground v.1.15,2013-03-02 13:52:00,
2013-03-02 08:58:00,22.2,21.0,29.80,North,355,4.0,11.0,95,0.00,,,0.00,Wunderground v.1.15,2013-03-02 13:58:00,
2013-03-02 09:04:00,22.2,20.7,29.80,NNW,345,5.0,8.0,94,0.00,,,0.00,Wunderground v.1.15,2013-03-02 14:04:00,
2013-03-02 09:10:00,22.2,20.7,29.80,North,351,3.0,8.0,94,0.00,,,0.00,Wunderground v.1.15,2013-03-02 14:10:00,
2013-03-02 09:16:00,22.2,20.7,29.80,NNW,348,4.0,8.0,94,0.00,,,0.00,Wunderground v.1.15,2013-03-02 14:16:00,
2013-03-02 09:22:00,22.1,20.6,29.79,North,355,5.0,8.0,94,0.00,,,0.00,Wunderground v.1.15,2013-03-02 14:22:00,
2013-03-02 09:28:00,22.3,21.1,29.79,NW,311,5.0,8.0,95,0.00,,,0.00,Wunderground v.1.15,2013-03-02 14:28:00,
2013-03-02 09:34:00,22.4,20.9,29.79,NNW,339,4.0,8.0,94,0.00,,,0.00,Wunderground v.1.15,2013-03-02 14:34:00,
2013-03-02 09:40:00,22.4,20.9,29.79,North,349,4.0,8.0,94,0.00,,,0.00,Wunderground v.1.15,2013-03-02 14:40:00,
2013-03-02 09:45:00,22.4,21.0,29.79,North,355,5.0,10.0,94,0.00,,,0.00,weatherlink.com 1.10,2013-03-02 14:45:00,
2013-03-02 09:52:00,22.5,21.0,29.79,NNW,333,4.0,8.0,94,0.00,,,0.00,Wunderground v.1.15,2013-03-02 14:52:00,
2013-03-02 09:58:00,22.6,21.1,29.79,NNW,344,5.0,8.0,94,0.00,,,0.00,Wunderground v.1.15,2013-03-02 14:58:00,
2013-03-02 10:04:00,22.7,21.2,29.79,NNW,331,4.0,10.0,94,0.00,,,0.00,Wunderground v.1.15,2013-03-02 15:04:00,
2013-03-02 10:10:00,23.0,21.5,29.79,NNW,327,4.0,10.0,94,0.00,,,0.00,Wunderground v.1.15,2013-03-02 15:10:00,
2013-03-02 10:15:00,23.1,22.0,29.79,North,5,4.0,7.0,94,0.00,,,0.00,weatherlink.com 1.10,2013-03-02 15:15:00,
2013-03-02 10:22:00,23.0,21.5,29.79,NW,320,5.0,10.0,94,0.00,,,0.00,Wunderground v.1.15,2013-03-02 15:22:00,
2013-03-02 10:28:00,22.8,21.3,29.79,NNW,335,5.0,10.0,94,0.00,,,0.00,Wunderground v.1.15,2013-03-02 15:28:00,
2013-03-02 10:34:00,22.6,21.1,29.79,NNW,338,6.0,10.0,94,0.00,,,0.00,Wunderground v.1.15,2013-03-02 15:34:00,
2013-03-02 10:40:00,22.7,21.2,29.79,NW,306,6.0,10.0,94,0.00,,,0.00,Wunderground v.1.15,2013-03-02 15:40:00,
2013-03-02 10:46:00,22.9,22.0,29.78,NW,317,9.0,14.0,94,0.00,,,0.00,weatherlink.com 1.10,2013-03-02 15:46:00,
2013-03-02 10:52:00,23.0,21.5,29.79,NNW,333,5.0,10.0,94,0.00,,,0.00,Wunderground v.1.15,2013-03-02 15:52:00,
2013-03-02 10:58:00,23.2,21.7,29.78,NW,321,5.0,10.0,94,0.00,,,0.00,Wunderground v.1.15,2013-03-02 15:58:00,
2013-03-02 11:04:00,23.2,21.5,29.79,NW,322,5.0,14.0,93,0.00,,,0.00,Wunderground v.1.15,2013-03-02 16:04:00,
2013-03-02 11:10:00,23.4,21.9,29.79,NW,311,5.0,14.0,94,0.00,,,0.00,Wunderground v.1.15,2013-03-02 16:10:00,
2013-03-02 11:16:00,23.4,21.9,29.79,North,350,5.0,14.0,94,0.00,,,0.00,Wunderground v.1.15,2013-03-02 16:16:00,
2013-03-02 11:22:00,23.3,21.6,29.78,NW,325,5.0,14.0,93,0.00,,,0.00,Wunderground v.1.15,2013-03-02 16:22:00,
2013-03-02 11:28:00,23.3,21.8,29.78,NW,321,6.0,14.0,94,0.00,,,0.00,Wunderground v.1.15,2013-03-02 16:28:00,
2013-03-02 11:34:00,23.3,21.8,29.78,NW,324,6.0,14.0,94,0.00,,,0.00,Wunderground v.1.15,2013-03-02 16:34:00,
2013-03-02 11:40:00,23.2,21.7,29.78,NW,305,6.0,14.0,94,0.00,,,0.00,Wunderground v.1.15,2013-03-02 16:40:00,
2013-03-02 11:46:00,23.3,21.8,29.78,NW,317,6.0,14.0,94,0.00,,,0.00,Wunderground v.1.15,2013-03-02 16:46:00,
2013-03-02 11:52:00,23.1,21.6,29.78,North,360,6.0,14.0,94,0.00,,,0.00,Wunderground v.1.15,2013-03-02 16:52:00,
2013-03-02 11:58:00,23.3,21.8,29.78,NW,322,6.0,14.0,94,0.00,,,0.00,Wunderground v.1.15,2013-03-02 16:58:00,
2013-03-02 12:04:00,23.4,21.9,29.78,NNW,327,5.0,14.0,94,0.00,,,0.00,Wunderground v.1.15,2013-03-02 17:04:00,
2013-03-02 12:10:00,23.3,21.8,29.78,NNW,328,5.0,5.0,94,0.00,,,0.00,Wunderground v.1.15,2013-03-02 17:10:00,
2013-03-02 12:16:00,23.4,21.9,29.77,NW,312,5.0,14.0,94,0.00,,,0.00,Wunderground v.1.15,2013-03-02 17:16:00,
2013-03-02 12:22:00,23.6,22.1,29.77,North,355,5.0,14.0,94,0.00,,,0.00,Wunderground v.1.15,2013-03-02 17:22:00,
2013-03-02 12:28:00,23.4,21.9,29.77,NW,304,5.0,14.0,94,0.00,,,0.00,Wunderground v.1.15,2013-03-02 17:28:00,
2013-03-02 12:34:00,23.5,22.0,29.77,North,350,5.0,14.0,94,0.00,,,0.00,Wunderground v.1.15,2013-03-02 17:34:00,
2013-03-02 12:40:00,23.6,22.1,29.76,NNW,331,5.0,14.0,94,0.00,,,0.00,Wunderground v.1.15,2013-03-02 17:40:00,
2013-03-02 12:46:00,23.5,21.8,29.76,NNW,338,5.0,14.0,93,0.00,,,0.00,Wunderground v.1.15,2013-03-02 17:46:00,
2013-03-02 12:52:00,23.7,22.2,29.76,NNW,335,4.0,14.0,94,0.00,,,0.00,Wunderground v.1.15,2013-03-02 17:52:00,
2013-03-02 12:58:00,23.6,22.1,29.75,NNW,342,4.0,14.0,94,0.00,,,0.00,Wunderground v.1.15,2013-03-02 17:58:00,
2013-03-02 13:04:00,23.6,22.1,29.75,North,350,5.0,9.0,94,0.00,,,0.00,Wunderground v.1.15,2013-03-02 18:04:00,
2013-03-02 13:10:00,23.7,22.2,29.75,NNW,348,5.0,5.0,94,0.00,,,0.00,Wunderground v.1.15,2013-03-02 18:10:00,
2013-03-02 13:16:00,23.8,22.3,29.75,NW,307,4.0,9.0,94,0.00,,,0.00,Wunderground v.1.15,2013-03-02 18:16:00,
2013-03-02 13:22:00,23.9,22.4,29.75,NNW,334,4.0,9.0,94,0.00,,,0.00,Wunderground v.1.15,2013-03-02 18:22:00,
2013-03-02 13:28:00,24.1,22.6,29.75,North,360,4.0,9.0,94,0.00,,,0.00,Wunderground v.1.15,2013-03-02 18:28:00,
2013-03-02 13:34:00,24.2,22.5,29.75,NW,319,4.0,9.0,93,0.00,,,0.00,Wunderground v.1.15,2013-03-02 18:34:00,
2013-03-02 13:40:00,24.0,22.3,29.75,NW,319,5.0,9.0,93,0.00,,,0.00,Wunderground v.1.15,2013-03-02 18:40:00,
2013-03-02 13:46:00,24.2,22.7,29.75,NW,313,4.0,9.0,94,0.00,,,0.00,Wunderground v.1.15,2013-03-02 18:46:00,
2013-03-02 13:52:00,24.0,22.5,29.75,North,360,5.0,9.0,94,0.00,,,0.00,Wunderground v.1.15,2013-03-02 18:52:00,
2013-03-02 13:58:00,23.8,22.3,29.75,North,360,5.0,9.0,94,0.00,,,0.00,Wunderground v.1.15,2013-03-02 18:58:00,
2013-03-02 14:04:00,24.0,22.5,29.75,NNW,332,5.0,11.0,94,0.00,,,0.00,Wunderground v.1.15,2013-03-02 19:04:00,
2013-03-02 14:10:00,24.2,22.7,29.75,NW,326,4.0,11.0,94,0.00,,,0.00,Wunderground v.1.15,2013-03-02 19:10:00,
2013-03-02 14:16:00,24.2,22.7,29.75,NNW,339,5.0,11.0,94,0.00,,,0.00,Wunderground v.1.15,2013-03-02 19:16:00,
2013-03-02 14:22:00,24.4,22.7,29.75,NW,318,5.0,11.0,93,0.00,,,0.00,Wunderground v.1.15,2013-03-02 19:22:00,
2013-03-02 14:28:00,24.4,22.7,29.74,NNW,333,5.0,11.0,93,0.00,,,0.00,Wunderground v.1.15,2013-03-02 19:28:00,
2013-03-02 14:34:00,24.5,22.8,29.74,North,355,4.0,11.0,93,0.00,,,0.00,Wunderground v.1.15,2013-03-02 19:34:00,
2013-03-02 14:40:00,24.2,22.5,29.74,NNW,330,5.0,11.0,93,0.00,,,0.00,Wunderground v.1.15,2013-03-02 19:40:00,
2013-03-02 14:46:00,24.0,22.3,29.74,NNW,338,6.0,11.0,93,0.00,,,0.00,Wunderground v.1.15,2013-03-02 19:46:00,
2013-03-02 14:52:00,23.9,22.2,29.74,North,355,6.0,11.0,93,0.00,,,0.00,Wunderground v.1.15,2013-03-02 19:52:00,
2013-03-02 14:58:00,24.0,22.0,29.74,NW,325,5.0,11.0,92,0.00,,,0.00,Wunderground v.1.15,2013-03-02 19:58:00,
2013-03-02 15:04:00,23.9,21.9,29.74,NNW,329,5.0,16.0,92,0.00,,,0.00,Wunderground v.1.15,2013-03-02 20:04:00,
2013-03-02 15:10:00,23.8,21.6,29.74,North,5,5.0,16.0,91,0.00,,,0.00,Wunderground v.1.15,2013-03-02 20:10:00,
2013-03-02 15:16:00,23.8,21.8,29.74,NW,319,5.0,16.0,92,0.00,,,0.00,Wunderground v.1.15,2013-03-02 20:16:00,
2013-03-02 15:22:00,23.8,21.8,29.74,NW,319,5.0,7.0,92,0.00,,,0.00,Wunderground v.1.15,2013-03-02 20:22:00,
2013-03-02 15:28:00,23.8,21.8,29.74,North,360,6.0,16.0,92,0.00,,,0.00,Wunderground v.1.15,2013-03-02 20:28:00,
2013-03-02 15:33:00,24.1,22.0,29.74,NNE,17,2.0,11.0,92,0.00,,,0.00,weatherlink.com 1.10,2013-03-02 20:33:00,
2013-03-02 15:40:00,23.7,21.5,29.74,NNW,333,5.0,16.0,91,0.00,,,0.00,Wunderground v.1.15,2013-03-02 20:40:00,
2013-03-02 15:46:00,23.8,21.8,29.74,NW,319,5.0,16.0,92,0.00,,,0.00,Wunderground v.1.15,2013-03-02 20:46:00,
2013-03-02 15:52:00,23.7,21.7,29.74,NNW,336,5.0,6.0,92,0.00,,,0.00,Wunderground v.1.15,2013-03-02 20:52:00,
2013-03-02 15:58:00,23.6,21.6,29.74,North,355,5.0,16.0,92,0.00,,,0.00,Wunderground v.1.15,2013-03-02 20:58:00,
2013-03-02 16:03:00,23.5,22.0,29.74,NNW,342,4.0,12.0,92,0.00,,,0.00,weatherlink.com 1.10,2013-03-02 21:03:00,
2013-03-02 16:10:00,23.5,21.5,29.74,North,355,5.0,15.0,92,0.00,,,0.00,Wunderground v.1.15,2013-03-02 21:10:00,
2013-03-02 16:16:00,23.5,21.5,29.74,NNW,338,5.0,15.0,92,0.00,,,0.00,Wunderground v.1.15,2013-03-02 21:16:00,
2013-03-02 16:22:00,23.5,21.5,29.74,North,355,4.0,15.0,92,0.00,,,0.00,Wunderground v.1.15,2013-03-02 21:22:00,
2013-03-02 16:28:00,23.6,21.6,29.75,North,355,4.0,15.0,92,0.00,,,0.00,Wunderground v.1.15,2013-03-02 21:28:00,
2013-03-02 16:34:00,23.4,21.4,29.75,North,360,5.0,15.0,92,0.00,,,0.00,Wunderground v.1.15,2013-03-02 21:34:00,
2013-03-02 16:40:00,23.3,21.3,29.75,NW,317,5.0,5.0,92,0.00,,,0.00,Wunderground v.1.15,2013-03-02 21:40:00,
2013-03-02 16:46:00,23.3,21.3,29.75,NNW,331,5.0,15.0,92,0.00,,,0.00,Wunderground v.1.15,2013-03-02 21:46:00,
2013-03-02 16:52:00,23.3,21.6,29.74,North,355,4.0,15.0,93,0.00,,,0.00,Wunderground v.1.15,2013-03-02 21:52:00,
2013-03-02 16:58:00,23.1,21.1,29.75,NNW,337,4.0,15.0,92,0.00,,,0.00,Wunderground v.1.15,2013-03-02 21:58:00,
2013-03-02 17:04:00,23.2,21.5,29.75,North,355,4.0,13.0,93,0.00,,,0.00,Wunderground v.1.15,2013-03-02 22:04:00,
2013-03-02 17:10:00,23.1,21.4,29.75,NNW,339,4.0,4.0,93,0.00,,,0.00,Wunderground v.1.15,2013-03-02 22:10:00,
2013-03-02 17:16:00,23.1,21.4,29.75,NNW,346,4.0,13.0,93,0.00,,,0.00,Wunderground v.1.15,2013-03-02 22:16:00,
2013-03-02 17:22:00,23.0,21.3,29.75,NW,319,4.0,13.0,93,0.00,,,0.00,Wunderground v.1.15,2013-03-02 22:22:00,
2013-03-02 17:28:00,22.9,21.4,29.75,WNW,296,4.0,13.0,94,0.00,,,0.00,Wunderground v.1.15,2013-03-02 22:28:00,
2013-03-02 17:34:00,22.9,21.4,29.76,NW,317,4.0,13.0,94,0.00,,,0.00,Wunderground v.1.15,2013-03-02 22:34:00,
2013-03-02 17:40:00,22.9,21.4,29.75,NW,319,4.0,4.0,94,0.00,,,0.00,Wunderground v.1.15,2013-03-02 22:40:00,
2013-03-02 17:46:00,22.8,21.3,29.75,NNW,331,5.0,13.0,94,0.00,,,0.00,Wunderground v.1.15,2013-03-02 22:46:00,
2013-03-02 17:52:00,22.7,21.2,29.75,NW,316,5.0,7.0,94,0.00,,,0.00,Wunderground v.1.15,2013-03-02 22:52:00,
2013-03-02 17:58:00,22.8,21.6,29.76,NNW,333,5.0,13.0,95,0.00,,,0.00,Wunderground v.1.15,2013-03-02 22:58:00,
2013-03-02 18:04:00,22.8,21.6,29.76,NW,323,4.0,10.0,95,0.00,,,0.00,Wunderground v.1.15,2013-03-02 23:04:00,
2013-03-02 18:10:00,22.7,21.5,29.76,NW,324,4.0,10.0,95,0.00,,,0.00,Wunderground v.1.15,2013-03-02 23:10:00,
2013-03-02 18:16:00,22.7,21.5,29.76,NW,312,4.0,10.0,95,0.00,,,0.00,Wunderground v.1.15,2013-03-02 23:16:00,
2013-03-02 18:22:00,22.7,21.5,29.76,NW,311,5.0,10.0,95,0.00,,,0.00,Wunderground v.1.15,2013-03-02 23:22:00,
2013-03-02 18:28:00,22.7,21.5,29.76,NW,309,5.0,10.0,95,0.00,,,0.00,Wunderground v.1.15,2013-03-02 23:28:00,
2013-03-02 18:34:00,22.6,21.6,29.76,NNW,331,5.0,10.0,96,0.00,,,0.00,Wunderground v.1.15,2013-03-02 23:34:00,
2013-03-02 18:40:00,22.6,21.6,29.76,NW,314,5.0,10.0,96,0.00,,,0.00,Wunderground v.1.15,2013-03-02 23:40:00,
2013-03-02 18:46:00,22.6,21.6,29.76,NW,321,5.0,10.0,96,0.00,,,0.00,Wunderground v.1.15,2013-03-02 23:46:00,
2013-03-02 18:52:00,22.6,21.6,29.76,NW,311,5.0,10.0,96,0.00,,,0.00,Wunderground v.1.15,2013-03-02 23:52:00,
2013-03-02 19:02:00,22.6,21.6,29.76,NW,316,5.0,5.0,96,0.00,,,0.00,Wunderground v.1.15,2013-03-03 00:02:00,
2013-03-02 19:08:00,22.6,21.6,29.76,NW,323,4.0,8.0,96,0.00,,,0.00,Wunderground v.1.15,2013-03-03 00:08:00,
2013-03-02 19:14:00,22.6,21.6,29.76,NNW,332,4.0,8.0,96,0.00,,,0.00,Wunderground v.1.15,2013-03-03 00:14:00,
2013-03-02 19:19:00,22.4,22.0,29.76,NW,319,5.0,8.0,96,0.00,,,0.00,weatherlink.com 1.10,2013-03-03 00:19:00,
2013-03-02 19:26:00,22.4,21.4,29.76,NW,309,5.0,8.0,96,0.00,,,0.00,Wunderground v.1.15,2013-03-03 00:26:00,
2013-03-02 19:32:00,22.4,21.4,29.76,NW,317,5.0,5.0,96,0.00,,,0.00,Wunderground v.1.15,2013-03-03 00:32:00,
2013-03-02 19:38:00,22.4,21.4,29.76,NW,308,4.0,8.0,96,0.00,,,0.00,Wunderground v.1.15,2013-03-03 00:38:00,
2013-03-02 19:44:00,22.4,21.4,29.76,NW,317,5.0,6.0,96,0.00,,,0.00,Wunderground v.1.15,2013-03-03 00:44:00,
2013-03-02 19:50:00,22.5,21.5,29.75,NW,324,5.0,8.0,96,0.00,,,0.00,Wunderground v.1.15,2013-03-03 00:50:00,
2013-03-02 19:56:00,22.4,21.4,29.75,NNW,327,5.0,8.0,96,0.00,,,0.00,Wunderground v.1.15,2013-03-03 00:56:00,
2013-03-02 20:02:00,22.4,21.4,29.76,NNW,336,5.0,8.0,96,0.00,,,0.00,Wunderground v.1.15,2013-03-03 01:02:00,
2013-03-02 20:08:00,22.4,21.4,29.76,NNW,340,4.0,8.0,96,0.00,,,0.00,Wunderground v.1.15,2013-03-03 01:08:00,
2013-03-02 20:14:00,22.4,21.7,29.76,NNW,331,4.0,8.0,97,0.00,,,0.00,Wunderground v.1.15,2013-03-03 01:14:00,
2013-03-02 20:20:00,22.3,21.6,29.75,North,355,3.0,3.0,97,0.00,,,0.00,Wunderground v.1.15,2013-03-03 01:20:00,
2013-03-02 20:26:00,22.2,21.5,29.76,NW,313,3.0,8.0,97,0.00,,,0.00,Wunderground v.1.15,2013-03-03 01:26:00,
2013-03-02 20:32:00,22.2,21.5,29.75,NW,325,3.0,8.0,97,0.00,,,0.00,Wunderground v.1.15,2013-03-03 01:32:00,
2013-03-02 20:38:00,22.2,21.5,29.75,NNW,338,4.0,8.0,97,0.00,,,0.00,Wunderground v.1.15,2013-03-03 01:38:00,
2013-03-02 20:44:00,22.2,21.5,29.75,North,360,4.0,8.0,97,0.00,,,0.00,Wunderground v.1.15,2013-03-03 01:44:00,
2013-03-02 20:49:00,22.2,21.5,29.75,NW,313,3.0,8.0,97,0.00,,,0.00,Wunderground v.1.15,2013-03-03 01:49:00,
2013-03-02 20:56:00,22.2,21.5,29.76,NNW,327,3.0,8.0,97,0.00,,,0.00,Wunderground v.1.15,2013-03-03 01:56:00,
2013-03-02 21:02:00,22.2,21.5,29.76,NNW,345,3.0,7.0,97,0.00,,,0.00,Wunderground v.1.15,2013-03-03 02:02:00,
2013-03-02 21:08:00,22.2,21.5,29.76,NW,317,3.0,7.0,97,0.00,,,0.00,Wunderground v.1.15,2013-03-03 02:08:00,
2013-03-02 21:14:00,22.2,21.5,29.76,NW,323,3.0,7.0,97,0.00,,,0.00,Wunderground v.1.15,2013-03-03 02:14:00,
2013-03-02 21:20:00,22.2,21.2,29.76,NW,323,3.0,7.0,96,0.00,,,0.00,Wunderground v.1.15,2013-03-03 02:20:00,
2013-03-02 21:26:00,22.2,21.5,29.76,NW,318,3.0,7.0,97,0.00,,,0.00,Wunderground v.1.15,2013-03-03 02:26:00,
2013-03-02 21:32:00,22.2,21.2,29.75,NNW,346,3.0,7.0,96,0.00,,,0.00,Wunderground v.1.15,2013-03-03 02:32:00,
2013-03-02 21:38:00,22.2,21.2,29.75,NW,321,3.0,7.0,96,0.00,,,0.00,Wunderground v.1.15,2013-03-03 02:38:00,
2013-03-02 21:44:00,22.2,21.5,29.75,NNW,331,3.0,7.0,97,0.00,,,0.00,Wunderground v.1.15,2013-03-03 02:44:00,
2013-03-02 21:50:00,22.2,21.5,29.75,NNW,339,3.0,7.0,97,0.00,,,0.00,Wunderground v.1.15,2013-03-03 02:50:00,
2013-03-02 21:56:00,22.2,21.5,29.75,NW,316,2.0,7.0,97,0.00,,,0.00,Wunderground v.1.15,2013-03-03 02:56:00,
2013-03-02 22:02:00,22.2,21.5,29.75,NW,313,2.0,6.0,97,0.00,,,0.00,Wunderground v.1.15,2013-03-03 03:02:00,
2013-03-02 22:08:00,22.2,21.5,29.75,NNW,339,2.0,6.0,97,0.00,,,0.00,Wunderground v.1.15,2013-03-03 03:08:00,
2013-03-02 22:14:00,22.2,21.5,29.75,NW,317,2.0,6.0,97,0.00,,,0.00,Wunderground v.1.15,2013-03-03 03:14:00,
2013-03-02 22:20:00,22.2,21.5,29.74,NW,312,3.0,6.0,97,0.00,,,0.00,Wunderground v.1.15,2013-03-03 03:20:00,
2013-03-02 22:26:00,22.2,21.5,29.74,NNW,342,3.0,6.0,97,0.00,,,0.00,Wunderground v.1.15,2013-03-03 03:26:00,
2013-03-02 22:32:00,22.3,21.6,29.74,NNW,327,2.0,6.0,97,0.00,,,0.00,Wunderground v.1.15,2013-03-03 03:32:00,
2013-03-02 22:38:00,22.3,21.6,29.74,NNE,12,3.0,6.0,97,0.00,,,0.00,Wunderground v.1.15,2013-03-03 03:38:00,
2013-03-02 22:44:00,22.3,21.6,29.74,NW,324,3.0,6.0,97,0.00,,,0.00,Wunderground v.1.15,2013-03-03 03:44:00,
2013-03-02 22:52:00,22.4,21.7,29.73,NNW,342,2.0,6.0,97,0.00,,,0.00,Wunderground v.1.15,2013-03-03 03:52:00,
2013-03-02 22:58:00,22.4,21.7,29.73,NNE,26,2.0,6.0,97,0.00,,,0.00,Wunderground v.1.15,2013-03-03 03:58:00,
2013-03-02 23:04:00,22.4,21.7,29.73,NW,313,3.0,6.0,97,0.00,,,0.00,Wunderground v.1.15,2013-03-03 04:04:00,
2013-03-02 23:10:00,22.4,21.7,29.73,NNW,332,3.0,6.0,97,0.00,,,0.00,Wunderground v.1.15,2013-03-03 04:10:00,
2013-03-02 23:16:00,22.5,21.8,29.73,NNW,331,3.0,6.0,97,0.00,,,0.00,Wunderground v.1.15,2013-03-03 04:16:00,
2013-03-02 23:22:00,22.5,21.8,29.73,NNW,331,2.0,6.0,97,0.00,,,0.00,Wunderground v.1.15,2013-03-03 04:22:00,
2013-03-02 23:28:00,22.5,21.8,29.73,NNW,346,2.0,6.0,97,0.00,,,0.00,Wunderground v.1.15,2013-03-03 04:28:00,
2013-03-02 23:34:00,22.5,21.8,29.73,NW,307,2.0,6.0,97,0.00,,,0.00,Wunderground v.1.15,2013-03-03 04:34:00,
2013-03-02 23:40:00,22.5,21.8,29.73,NNW,344,2.0,2.0,97,0.00,,,0.00,Wunderground v.1.15,2013-03-03 04:40:00,
2013-03-02 23:46:00,22.5,21.8,29.73,NW,317,2.0,6.0,97,0.00,,,0.00,Wunderground v.1.15,2013-03-03 04:46:00,
2013-03-02 23:52:00,22.5,21.8,29.72,NNW,336,3.0,6.0,97,0.00,,,0.00,Wunderground v.1.15,2013-03-03 04:52:00,
2013-03-02 23:58:00,22.5,21.8,29.72,NW,316,3.0,6.0,97,0.00,,,0.00,Wunderground v.1.15,2013-03-03 04:58:00,